sensor_id;sensor_type;location;lat;lon;timestamp;temperature;humidity
43665;DHT22;29263;48.172;11.484;2023-05-16T00:00:17;10.50;99.90
43665;DHT22;29263;48.172;11.484;2023-05-16T00:02:42;10.40;99.90
43665;DHT22;29263;48.172;11.484;2023-05-16T00:05:08;10.40;99.90
43665;DHT22;29263;48.172;11.484;2023-05-16T00:07:40;10.40;99.90
43665;DHT22;29263;48.172;11.484;2023-05-16T00:10:10;10.30;99.90
43665;DHT22;29263;48.172;11.484;2023-05-16T00:12:37;10.30;99.90
43665;DHT22;29263;48.172;11.484;2023-05-16T00:15:06;10.30;99.90
43665;DHT22;29263;48.172;11.484;2023-05-16T00:17:34;10.30;99.90
43665;DHT22;29263;48.172;11.484;2023-05-16T00:20:00;10.30;99.90
43665;DHT22;29263;48.172;11.484;2023-05-16T00:22:36;10.30;99.90
43665;DHT22;29263;48.172;11.484;2023-05-16T00:25:02;10.30;99.90
43665;DHT22;29263;48.172;11.484;2023-05-16T00:27:28;10.20;99.90
43665;DHT22;29263;48.172;11.484;2023-05-16T00:29:54;10.30;99.90
43665;DHT22;29263;48.172;11.484;2023-05-16T00:32:20;10.30;99.90
43665;DHT22;29263;48.172;11.484;2023-05-16T00:34:45;10.20;99.90
43665;DHT22;29263;48.172;11.484;2023-05-16T00:37:11;10.30;99.90
43665;DHT22;29263;48.172;11.484;2023-05-16T00:39:37;10.30;99.90
43665;DHT22;29263;48.172;11.484;2023-05-16T00:42:02;10.30;99.90
43665;DHT22;29263;48.172;11.484;2023-05-16T00:44:28;10.30;99.90
43665;DHT22;29263;48.172;11.484;2023-05-16T00:46:54;10.30;99.90
43665;DHT22;29263;48.172;11.484;2023-05-16T00:49:19;10.30;99.90
43665;DHT22;29263;48.172;11.484;2023-05-16T00:51:46;10.30;99.90
43665;DHT22;29263;48.172;11.484;2023-05-16T00:54:12;10.30;99.90
43665;DHT22;29263;48.172;11.484;2023-05-16T00:56:38;10.30;99.90
43665;DHT22;29263;48.172;11.484;2023-05-16T00:59:04;10.30;99.90
43665;DHT22;29263;48.172;11.484;2023-05-16T01:01:30;10.30;99.90
43665;DHT22;29263;48.172;11.484;2023-05-16T01:03:56;10.30;99.90
43665;DHT22;29263;48.172;11.484;2023-05-16T01:06:22;10.30;99.90
43665;DHT22;29263;48.172;11.484;2023-05-16T01:08:47;10.30;99.90
43665;DHT22;29263;48.172;11.484;2023-05-16T01:14:28;10.30;99.90
43665;DHT22;29263;48.172;11.484;2023-05-16T01:17:08;10.30;99.90
43665;DHT22;29263;48.172;11.484;2023-05-16T01:28:16;10.30;99.90
43665;DHT22;29263;48.172;11.484;2023-05-16T01:30:42;10.30;99.90
43665;DHT22;29263;48.172;11.484;2023-05-16T01:33:08;10.30;99.90
43665;DHT22;29263;48.172;11.484;2023-05-16T01:38:29;10.20;99.90
43665;DHT22;29263;48.172;11.484;2023-05-16T01:41:07;10.20;99.90
43665;DHT22;29263;48.172;11.484;2023-05-16T01:43:38;10.20;99.90
43665;DHT22;29263;48.172;11.484;2023-05-16T01:46:11;10.20;99.90
43665;DHT22;29263;48.172;11.484;2023-05-16T01:49:04;10.20;99.90
43665;DHT22;29263;48.172;11.484;2023-05-16T01:51:32;10.10;99.90
43665;DHT22;29263;48.172;11.484;2023-05-16T01:54:04;10.10;99.90
43665;DHT22;29263;48.172;11.484;2023-05-16T01:56:32;10.10;99.90
43665;DHT22;29263;48.172;11.484;2023-05-16T01:58:58;10.00;99.90
43665;DHT22;29263;48.172;11.484;2023-05-16T02:01:25;10.00;99.90
43665;DHT22;29263;48.172;11.484;2023-05-16T02:03:51;10.00;99.90
43665;DHT22;29263;48.172;11.484;2023-05-16T02:06:16;10.00;99.90
43665;DHT22;29263;48.172;11.484;2023-05-16T02:08:42;10.00;99.90
43665;DHT22;29263;48.172;11.484;2023-05-16T02:11:08;10.00;99.90
43665;DHT22;29263;48.172;11.484;2023-05-16T02:13:33;10.00;99.90
43665;DHT22;29263;48.172;11.484;2023-05-16T02:15:59;9.90;99.90
43665;DHT22;29263;48.172;11.484;2023-05-16T02:18:24;10.00;99.90
43665;DHT22;29263;48.172;11.484;2023-05-16T02:20:50;9.90;99.90
43665;DHT22;29263;48.172;11.484;2023-05-16T02:23:16;9.90;99.90
43665;DHT22;29263;48.172;11.484;2023-05-16T02:25:41;9.90;99.90
43665;DHT22;29263;48.172;11.484;2023-05-16T02:28:27;9.90;99.90
43665;DHT22;29263;48.172;11.484;2023-05-16T02:30:57;9.90;99.90
43665;DHT22;29263;48.172;11.484;2023-05-16T02:33:24;9.90;99.90
43665;DHT22;29263;48.172;11.484;2023-05-16T02:35:50;9.80;99.90
43665;DHT22;29263;48.172;11.484;2023-05-16T02:38:15;9.80;99.90
43665;DHT22;29263;48.172;11.484;2023-05-16T02:40:42;9.70;99.90
43665;DHT22;29263;48.172;11.484;2023-05-16T02:43:07;9.70;99.90
43665;DHT22;29263;48.172;11.484;2023-05-16T02:45:33;9.80;99.90
43665;DHT22;29263;48.172;11.484;2023-05-16T02:47:59;9.80;99.90
43665;DHT22;29263;48.172;11.484;2023-05-16T02:50:24;9.70;99.90
43665;DHT22;29263;48.172;11.484;2023-05-16T02:52:50;9.70;99.90
43665;DHT22;29263;48.172;11.484;2023-05-16T02:55:15;9.80;99.90
43665;DHT22;29263;48.172;11.484;2023-05-16T02:57:41;9.80;99.90
43665;DHT22;29263;48.172;11.484;2023-05-16T03:00:07;9.80;99.90
43665;DHT22;29263;48.172;11.484;2023-05-16T03:02:35;9.80;99.90
43665;DHT22;29263;48.172;11.484;2023-05-16T03:05:00;9.80;99.90
43665;DHT22;29263;48.172;11.484;2023-05-16T03:07:26;9.80;99.90
43665;DHT22;29263;48.172;11.484;2023-05-16T03:09:51;9.80;99.90
43665;DHT22;29263;48.172;11.484;2023-05-16T03:12:17;9.80;99.90
43665;DHT22;29263;48.172;11.484;2023-05-16T03:14:42;9.80;99.90
43665;DHT22;29263;48.172;11.484;2023-05-16T03:17:08;9.70;99.90
43665;DHT22;29263;48.172;11.484;2023-05-16T03:19:34;9.70;99.90
43665;DHT22;29263;48.172;11.484;2023-05-16T03:21:59;9.70;99.90
43665;DHT22;29263;48.172;11.484;2023-05-16T03:24:25;9.70;99.90
43665;DHT22;29263;48.172;11.484;2023-05-16T03:26:50;9.70;99.90
43665;DHT22;29263;48.172;11.484;2023-05-16T03:29:16;9.70;99.90
43665;DHT22;29263;48.172;11.484;2023-05-16T03:31:42;9.60;99.90
43665;DHT22;29263;48.172;11.484;2023-05-16T03:34:07;9.60;99.90
43665;DHT22;29263;48.172;11.484;2023-05-16T03:36:33;9.60;99.90
43665;DHT22;29263;48.172;11.484;2023-05-16T03:39:00;9.60;99.90
43665;DHT22;29263;48.172;11.484;2023-05-16T03:41:25;9.70;99.90
43665;DHT22;29263;48.172;11.484;2023-05-16T03:43:51;9.70;99.90
43665;DHT22;29263;48.172;11.484;2023-05-16T03:46:17;9.70;99.90
43665;DHT22;29263;48.172;11.484;2023-05-16T03:48:43;9.70;99.90
43665;DHT22;29263;48.172;11.484;2023-05-16T03:51:08;9.70;99.90
43665;DHT22;29263;48.172;11.484;2023-05-16T03:53:34;9.70;99.90
43665;DHT22;29263;48.172;11.484;2023-05-16T03:56:00;9.60;99.90
43665;DHT22;29263;48.172;11.484;2023-05-16T03:58:25;9.70;99.90
43665;DHT22;29263;48.172;11.484;2023-05-16T04:00:51;9.70;99.90
43665;DHT22;29263;48.172;11.484;2023-05-16T04:03:16;9.70;99.90
43665;DHT22;29263;48.172;11.484;2023-05-16T04:05:42;9.80;99.90
43665;DHT22;29263;48.172;11.484;2023-05-16T04:08:08;9.80;99.90
43665;DHT22;29263;48.172;11.484;2023-05-16T04:10:33;9.80;99.90
43665;DHT22;29263;48.172;11.484;2023-05-16T04:12:59;9.80;99.90
43665;DHT22;29263;48.172;11.484;2023-05-16T04:15:24;9.80;99.90
43665;DHT22;29263;48.172;11.484;2023-05-16T04:17:50;9.80;99.90
43665;DHT22;29263;48.172;11.484;2023-05-16T04:20:16;9.80;99.90
43665;DHT22;29263;48.172;11.484;2023-05-16T04:22:41;9.80;99.90
43665;DHT22;29263;48.172;11.484;2023-05-16T04:25:07;9.80;99.90
43665;DHT22;29263;48.172;11.484;2023-05-16T04:27:33;9.80;99.90
43665;DHT22;29263;48.172;11.484;2023-05-16T04:29:59;9.90;99.90
43665;DHT22;29263;48.172;11.484;2023-05-16T04:32:25;9.80;99.90
43665;DHT22;29263;48.172;11.484;2023-05-16T04:34:53;9.90;99.90
43665;DHT22;29263;48.172;11.484;2023-05-16T04:37:18;9.90;99.90
43665;DHT22;29263;48.172;11.484;2023-05-16T04:39:45;9.90;99.90
43665;DHT22;29263;48.172;11.484;2023-05-16T04:42:11;9.90;99.90
43665;DHT22;29263;48.172;11.484;2023-05-16T04:44:37;9.90;99.90
43665;DHT22;29263;48.172;11.484;2023-05-16T04:47:03;9.90;99.90
43665;DHT22;29263;48.172;11.484;2023-05-16T04:49:28;9.90;99.90
43665;DHT22;29263;48.172;11.484;2023-05-16T04:51:54;9.90;99.90
43665;DHT22;29263;48.172;11.484;2023-05-16T04:54:20;9.90;99.90
43665;DHT22;29263;48.172;11.484;2023-05-16T04:56:45;9.90;99.90
43665;DHT22;29263;48.172;11.484;2023-05-16T04:59:11;9.90;99.90
43665;DHT22;29263;48.172;11.484;2023-05-16T05:01:36;9.90;99.90
43665;DHT22;29263;48.172;11.484;2023-05-16T05:04:02;9.90;99.90
43665;DHT22;29263;48.172;11.484;2023-05-16T05:06:28;10.00;99.90
43665;DHT22;29263;48.172;11.484;2023-05-16T05:08:54;10.00;99.90
43665;DHT22;29263;48.172;11.484;2023-05-16T05:11:20;10.10;99.90
43665;DHT22;29263;48.172;11.484;2023-05-16T05:13:45;10.10;99.90
43665;DHT22;29263;48.172;11.484;2023-05-16T05:16:11;10.20;99.90
43665;DHT22;29263;48.172;11.484;2023-05-16T05:18:37;10.30;99.90
43665;DHT22;29263;48.172;11.484;2023-05-16T05:21:03;10.30;99.90
43665;DHT22;29263;48.172;11.484;2023-05-16T05:23:29;10.30;99.90
43665;DHT22;29263;48.172;11.484;2023-05-16T05:25:55;10.40;99.90
43665;DHT22;29263;48.172;11.484;2023-05-16T05:28:20;10.40;99.90
43665;DHT22;29263;48.172;11.484;2023-05-16T05:30:46;10.50;99.90
43665;DHT22;29263;48.172;11.484;2023-05-16T05:33:17;10.60;99.90
43665;DHT22;29263;48.172;11.484;2023-05-16T05:35:45;10.60;99.90
43665;DHT22;29263;48.172;11.484;2023-05-16T05:38:11;10.60;99.90
43665;DHT22;29263;48.172;11.484;2023-05-16T05:40:36;10.60;99.90
43665;DHT22;29263;48.172;11.484;2023-05-16T05:43:02;10.50;99.90
43665;DHT22;29263;48.172;11.484;2023-05-16T05:45:27;10.60;99.90
43665;DHT22;29263;48.172;11.484;2023-05-16T05:47:53;10.60;99.90
43665;DHT22;29263;48.172;11.484;2023-05-16T05:50:19;10.60;99.90
43665;DHT22;29263;48.172;11.484;2023-05-16T05:52:44;10.50;99.90
43665;DHT22;29263;48.172;11.484;2023-05-16T05:55:10;10.50;99.90
43665;DHT22;29263;48.172;11.484;2023-05-16T05:57:36;10.50;99.90
43665;DHT22;29263;48.172;11.484;2023-05-16T06:00:02;10.50;99.90
43665;DHT22;29263;48.172;11.484;2023-05-16T06:02:29;10.50;99.90
43665;DHT22;29263;48.172;11.484;2023-05-16T06:04:55;10.50;99.90
43665;DHT22;29263;48.172;11.484;2023-05-16T06:07:20;10.50;99.90
43665;DHT22;29263;48.172;11.484;2023-05-16T06:09:46;10.50;99.90
43665;DHT22;29263;48.172;11.484;2023-05-16T06:12:11;10.50;99.90
43665;DHT22;29263;48.172;11.484;2023-05-16T06:14:37;10.50;99.90
43665;DHT22;29263;48.172;11.484;2023-05-16T06:17:03;10.50;99.90
43665;DHT22;29263;48.172;11.484;2023-05-16T06:19:28;10.50;99.90
43665;DHT22;29263;48.172;11.484;2023-05-16T06:21:57;10.50;99.90
43665;DHT22;29263;48.172;11.484;2023-05-16T06:24:23;10.60;99.90
43665;DHT22;29263;48.172;11.484;2023-05-16T06:26:48;10.60;99.90
43665;DHT22;29263;48.172;11.484;2023-05-16T06:29:15;10.60;99.90
43665;DHT22;29263;48.172;11.484;2023-05-16T06:31:44;10.60;99.90
43665;DHT22;29263;48.172;11.484;2023-05-16T06:34:11;10.70;99.90
43665;DHT22;29263;48.172;11.484;2023-05-16T06:36:37;10.70;99.90
43665;DHT22;29263;48.172;11.484;2023-05-16T06:39:03;10.70;99.90
43665;DHT22;29263;48.172;11.484;2023-05-16T06:41:29;10.80;99.90
43665;DHT22;29263;48.172;11.484;2023-05-16T06:43:55;10.80;99.90
43665;DHT22;29263;48.172;11.484;2023-05-16T06:46:21;10.90;99.90
43665;DHT22;29263;48.172;11.484;2023-05-16T06:48:46;11.00;99.90
43665;DHT22;29263;48.172;11.484;2023-05-16T06:51:12;11.10;99.90
43665;DHT22;29263;48.172;11.484;2023-05-16T06:53:38;11.20;99.90
43665;DHT22;29263;48.172;11.484;2023-05-16T06:56:04;11.30;99.90
43665;DHT22;29263;48.172;11.484;2023-05-16T06:58:29;11.40;99.90
43665;DHT22;29263;48.172;11.484;2023-05-16T07:00:55;11.40;99.90
43665;DHT22;29263;48.172;11.484;2023-05-16T07:03:21;11.40;99.90
43665;DHT22;29263;48.172;11.484;2023-05-16T07:05:46;11.40;99.90
43665;DHT22;29263;48.172;11.484;2023-05-16T07:08:12;11.50;99.90
43665;DHT22;29263;48.172;11.484;2023-05-16T07:10:38;11.50;99.90
43665;DHT22;29263;48.172;11.484;2023-05-16T07:13:04;11.50;99.90
43665;DHT22;29263;48.172;11.484;2023-05-16T07:15:30;11.50;99.90
43665;DHT22;29263;48.172;11.484;2023-05-16T07:17:56;11.50;99.90
43665;DHT22;29263;48.172;11.484;2023-05-16T07:20:22;11.50;99.90
43665;DHT22;29263;48.172;11.484;2023-05-16T07:22:48;11.60;99.90
43665;DHT22;29263;48.172;11.484;2023-05-16T07:25:13;11.60;99.90
43665;DHT22;29263;48.172;11.484;2023-05-16T07:27:40;11.70;99.90
43665;DHT22;29263;48.172;11.484;2023-05-16T07:30:10;11.70;99.90
43665;DHT22;29263;48.172;11.484;2023-05-16T07:32:35;11.70;99.90
43665;DHT22;29263;48.172;11.484;2023-05-16T07:35:02;11.70;99.90
43665;DHT22;29263;48.172;11.484;2023-05-16T07:37:28;11.70;99.90
43665;DHT22;29263;48.172;11.484;2023-05-16T07:39:54;11.70;99.90
43665;DHT22;29263;48.172;11.484;2023-05-16T07:42:20;11.70;99.90
43665;DHT22;29263;48.172;11.484;2023-05-16T07:44:46;11.70;99.90
43665;DHT22;29263;48.172;11.484;2023-05-16T07:47:11;11.70;99.90
43665;DHT22;29263;48.172;11.484;2023-05-16T07:49:37;11.70;99.90
43665;DHT22;29263;48.172;11.484;2023-05-16T07:52:03;11.60;99.90
43665;DHT22;29263;48.172;11.484;2023-05-16T07:54:33;11.60;99.90
43665;DHT22;29263;48.172;11.484;2023-05-16T07:56:59;11.60;99.90
43665;DHT22;29263;48.172;11.484;2023-05-16T07:59:24;11.50;99.90
43665;DHT22;29263;48.172;11.484;2023-05-16T08:01:50;11.50;99.90
43665;DHT22;29263;48.172;11.484;2023-05-16T08:04:16;11.50;99.90
43665;DHT22;29263;48.172;11.484;2023-05-16T08:06:41;11.50;99.90
43665;DHT22;29263;48.172;11.484;2023-05-16T08:09:07;11.50;99.90
43665;DHT22;29263;48.172;11.484;2023-05-16T08:11:34;11.50;99.90
43665;DHT22;29263;48.172;11.484;2023-05-16T08:13:59;11.50;99.90
43665;DHT22;29263;48.172;11.484;2023-05-16T08:16:25;11.40;99.90
43665;DHT22;29263;48.172;11.484;2023-05-16T08:18:50;11.40;99.90
43665;DHT22;29263;48.172;11.484;2023-05-16T08:21:16;11.40;99.90
43665;DHT22;29263;48.172;11.484;2023-05-16T08:23:42;11.30;99.90
43665;DHT22;29263;48.172;11.484;2023-05-16T08:26:07;11.30;99.90
43665;DHT22;29263;48.172;11.484;2023-05-16T08:28:33;11.20;99.90
43665;DHT22;29263;48.172;11.484;2023-05-16T08:30:59;11.20;99.90
43665;DHT22;29263;48.172;11.484;2023-05-16T08:33:24;11.10;99.90
43665;DHT22;29263;48.172;11.484;2023-05-16T08:35:50;11.10;99.90
43665;DHT22;29263;48.172;11.484;2023-05-16T08:38:21;11.10;99.90
43665;DHT22;29263;48.172;11.484;2023-05-16T08:40:47;11.10;99.90
43665;DHT22;29263;48.172;11.484;2023-05-16T08:43:13;11.00;99.90
43665;DHT22;29263;48.172;11.484;2023-05-16T08:45:40;11.00;99.90
43665;DHT22;29263;48.172;11.484;2023-05-16T08:48:06;11.00;99.90
43665;DHT22;29263;48.172;11.484;2023-05-16T08:50:32;11.00;99.90
43665;DHT22;29263;48.172;11.484;2023-05-16T08:53:04;11.10;99.90
43665;DHT22;29263;48.172;11.484;2023-05-16T08:55:32;11.00;99.90
43665;DHT22;29263;48.172;11.484;2023-05-16T08:57:58;11.10;99.90
43665;DHT22;29263;48.172;11.484;2023-05-16T09:00:26;11.10;99.90
43665;DHT22;29263;48.172;11.484;2023-05-16T09:02:52;11.10;99.90
43665;DHT22;29263;48.172;11.484;2023-05-16T09:05:18;11.20;99.90
43665;DHT22;29263;48.172;11.484;2023-05-16T09:07:44;11.20;99.90
43665;DHT22;29263;48.172;11.484;2023-05-16T09:10:12;11.20;99.90
43665;DHT22;29263;48.172;11.484;2023-05-16T09:12:39;11.30;99.90
43665;DHT22;29263;48.172;11.484;2023-05-16T09:15:07;11.40;99.90
43665;DHT22;29263;48.172;11.484;2023-05-16T09:17:37;11.50;99.90
43665;DHT22;29263;48.172;11.484;2023-05-16T09:20:19;11.60;99.90
43665;DHT22;29263;48.172;11.484;2023-05-16T09:22:53;11.70;99.90
43665;DHT22;29263;48.172;11.484;2023-05-16T09:25:20;11.70;99.90
43665;DHT22;29263;48.172;11.484;2023-05-16T09:27:46;11.80;99.90
43665;DHT22;29263;48.172;11.484;2023-05-16T09:30:14;11.80;99.90
43665;DHT22;29263;48.172;11.484;2023-05-16T09:32:43;11.80;99.90
43665;DHT22;29263;48.172;11.484;2023-05-16T09:35:13;11.80;99.90
43665;DHT22;29263;48.172;11.484;2023-05-16T09:37:44;11.80;99.90
43665;DHT22;29263;48.172;11.484;2023-05-16T09:40:10;11.80;99.90
43665;DHT22;29263;48.172;11.484;2023-05-16T09:42:36;11.90;99.90
43665;DHT22;29263;48.172;11.484;2023-05-16T09:45:02;11.90;99.90
43665;DHT22;29263;48.172;11.484;2023-05-16T09:47:31;12.00;99.90
43665;DHT22;29263;48.172;11.484;2023-05-16T09:49:57;12.00;99.90
43665;DHT22;29263;48.172;11.484;2023-05-16T09:52:26;12.20;99.90
43665;DHT22;29263;48.172;11.484;2023-05-16T09:54:51;12.20;99.90
43665;DHT22;29263;48.172;11.484;2023-05-16T09:57:19;12.30;99.90
43665;DHT22;29263;48.172;11.484;2023-05-16T09:59:46;12.30;99.90
43665;DHT22;29263;48.172;11.484;2023-05-16T10:02:12;12.30;99.90
43665;DHT22;29263;48.172;11.484;2023-05-16T10:04:38;12.30;99.90
43665;DHT22;29263;48.172;11.484;2023-05-16T10:07:05;12.20;99.90
43665;DHT22;29263;48.172;11.484;2023-05-16T10:09:31;12.20;99.90
43665;DHT22;29263;48.172;11.484;2023-05-16T10:12:00;12.20;99.90
43665;DHT22;29263;48.172;11.484;2023-05-16T10:14:35;12.10;99.90
43665;DHT22;29263;48.172;11.484;2023-05-16T10:17:03;12.10;99.90
43665;DHT22;29263;48.172;11.484;2023-05-16T10:19:31;12.10;99.90
43665;DHT22;29263;48.172;11.484;2023-05-16T10:22:03;12.00;99.90
43665;DHT22;29263;48.172;11.484;2023-05-16T10:24:43;11.90;99.90
43665;DHT22;29263;48.172;11.484;2023-05-16T10:27:09;11.90;99.90
43665;DHT22;29263;48.172;11.484;2023-05-16T10:29:36;11.90;99.90
43665;DHT22;29263;48.172;11.484;2023-05-16T10:32:02;11.80;99.90
43665;DHT22;29263;48.172;11.484;2023-05-16T10:34:29;11.70;99.90
43665;DHT22;29263;48.172;11.484;2023-05-16T10:36:55;11.70;99.90
43665;DHT22;29263;48.172;11.484;2023-05-16T10:39:21;11.70;99.90
43665;DHT22;29263;48.172;11.484;2023-05-16T10:41:47;11.70;99.90
43665;DHT22;29263;48.172;11.484;2023-05-16T10:44:13;11.70;99.90
43665;DHT22;29263;48.172;11.484;2023-05-16T10:46:42;11.70;99.90
43665;DHT22;29263;48.172;11.484;2023-05-16T10:49:21;11.70;99.90
43665;DHT22;29263;48.172;11.484;2023-05-16T10:52:04;11.70;99.90
43665;DHT22;29263;48.172;11.484;2023-05-16T10:54:34;11.70;99.90
43665;DHT22;29263;48.172;11.484;2023-05-16T10:57:04;11.70;99.90
43665;DHT22;29263;48.172;11.484;2023-05-16T10:59:50;11.70;99.90
43665;DHT22;29263;48.172;11.484;2023-05-16T11:02:30;11.70;99.90
43665;DHT22;29263;48.172;11.484;2023-05-16T11:04:59;11.60;99.90
43665;DHT22;29263;48.172;11.484;2023-05-16T11:07:32;11.60;99.90
43665;DHT22;29263;48.172;11.484;2023-05-16T11:10:16;11.60;99.90
43665;DHT22;29263;48.172;11.484;2023-05-16T11:12:47;11.60;99.90
43665;DHT22;29263;48.172;11.484;2023-05-16T11:15:23;11.60;99.90
43665;DHT22;29263;48.172;11.484;2023-05-16T11:17:49;11.50;99.90
43665;DHT22;29263;48.172;11.484;2023-05-16T11:20:26;11.60;99.90
43665;DHT22;29263;48.172;11.484;2023-05-16T11:25:48;11.60;99.90
43665;DHT22;29263;48.172;11.484;2023-05-16T11:28:16;11.60;99.90
43665;DHT22;29263;48.172;11.484;2023-05-16T11:30:44;11.60;99.90
43665;DHT22;29263;48.172;11.484;2023-05-16T11:33:10;11.50;99.90
43665;DHT22;29263;48.172;11.484;2023-05-16T11:35:37;11.50;99.90
43665;DHT22;29263;48.172;11.484;2023-05-16T11:38:03;11.50;99.90
43665;DHT22;29263;48.172;11.484;2023-05-16T11:40:29;11.50;99.90
43665;DHT22;29263;48.172;11.484;2023-05-16T11:42:59;11.50;99.90
43665;DHT22;29263;48.172;11.484;2023-05-16T11:45:27;11.50;99.90
43665;DHT22;29263;48.172;11.484;2023-05-16T11:47:53;11.50;99.90
43665;DHT22;29263;48.172;11.484;2023-05-16T11:50:20;11.50;99.90
43665;DHT22;29263;48.172;11.484;2023-05-16T11:52:49;11.60;99.90
43665;DHT22;29263;48.172;11.484;2023-05-16T11:55:25;11.80;99.90
43665;DHT22;29263;48.172;11.484;2023-05-16T11:57:52;11.90;99.90
43665;DHT22;29263;48.172;11.484;2023-05-16T12:00:20;12.00;99.90
43665;DHT22;29263;48.172;11.484;2023-05-16T12:02:47;12.20;99.90
43665;DHT22;29263;48.172;11.484;2023-05-16T12:05:14;12.40;99.90
43665;DHT22;29263;48.172;11.484;2023-05-16T12:07:42;12.50;99.90
43665;DHT22;29263;48.172;11.484;2023-05-16T12:10:10;12.60;99.90
43665;DHT22;29263;48.172;11.484;2023-05-16T12:12:38;12.70;99.90
43665;DHT22;29263;48.172;11.484;2023-05-16T12:15:08;12.80;99.90
43665;DHT22;29263;48.172;11.484;2023-05-16T12:17:34;13.00;99.90
43665;DHT22;29263;48.172;11.484;2023-05-16T12:20:01;13.10;99.90
43665;DHT22;29263;48.172;11.484;2023-05-16T12:22:30;13.10;99.90
43665;DHT22;29263;48.172;11.484;2023-05-16T12:25:20;13.20;99.90
43665;DHT22;29263;48.172;11.484;2023-05-16T12:27:57;13.20;99.90
43665;DHT22;29263;48.172;11.484;2023-05-16T12:30:27;13.20;99.90
43665;DHT22;29263;48.172;11.484;2023-05-16T12:33:20;13.20;99.90
43665;DHT22;29263;48.172;11.484;2023-05-16T12:36:33;13.20;99.90
43665;DHT22;29263;48.172;11.484;2023-05-16T12:42:04;13.20;99.90
43665;DHT22;29263;48.172;11.484;2023-05-16T12:44:33;13.30;99.90
43665;DHT22;29263;48.172;11.484;2023-05-16T12:54:15;13.60;99.90
43665;DHT22;29263;48.172;11.484;2023-05-16T13:07:41;14.30;99.90
43665;DHT22;29263;48.172;11.484;2023-05-16T13:10:26;14.40;99.90
43665;DHT22;29263;48.172;11.484;2023-05-16T13:13:25;14.50;99.90
43665;DHT22;29263;48.172;11.484;2023-05-16T13:15:44;14.50;99.90
43665;DHT22;29263;48.172;11.484;2023-05-16T13:18:16;14.50;99.90
43665;DHT22;29263;48.172;11.484;2023-05-16T13:31:14;13.50;99.90
43665;DHT22;29263;48.172;11.484;2023-05-16T13:33:41;13.30;99.90
43665;DHT22;29263;48.172;11.484;2023-05-16T13:36:06;13.20;99.90
43665;DHT22;29263;48.172;11.484;2023-05-16T13:38:32;12.90;99.90
43665;DHT22;29263;48.172;11.484;2023-05-16T13:40:58;12.80;99.90
43665;DHT22;29263;48.172;11.484;2023-05-16T13:43:23;12.60;99.90
43665;DHT22;29263;48.172;11.484;2023-05-16T13:45:49;12.50;99.90
43665;DHT22;29263;48.172;11.484;2023-05-16T13:48:15;12.40;99.90
43665;DHT22;29263;48.172;11.484;2023-05-16T13:50:40;12.30;99.90
43665;DHT22;29263;48.172;11.484;2023-05-16T13:53:06;12.20;99.90
43665;DHT22;29263;48.172;11.484;2023-05-16T13:55:32;12.10;99.90
43665;DHT22;29263;48.172;11.484;2023-05-16T13:57:58;12.00;99.90
43665;DHT22;29263;48.172;11.484;2023-05-16T14:00:24;11.90;99.90
43665;DHT22;29263;48.172;11.484;2023-05-16T14:02:51;11.80;99.90
43665;DHT22;29263;48.172;11.484;2023-05-16T14:05:17;11.80;99.90
43665;DHT22;29263;48.172;11.484;2023-05-16T14:07:43;11.80;99.90
43665;DHT22;29263;48.172;11.484;2023-05-16T14:10:08;11.80;99.90
43665;DHT22;29263;48.172;11.484;2023-05-16T14:12:34;11.80;99.90
43665;DHT22;29263;48.172;11.484;2023-05-16T14:15:00;11.80;99.90
43665;DHT22;29263;48.172;11.484;2023-05-16T14:17:28;11.70;99.90
43665;DHT22;29263;48.172;11.484;2023-05-16T14:19:54;11.70;99.90
43665;DHT22;29263;48.172;11.484;2023-05-16T14:22:19;11.70;99.90
43665;DHT22;29263;48.172;11.484;2023-05-16T14:24:48;11.70;99.90
43665;DHT22;29263;48.172;11.484;2023-05-16T14:27:14;11.70;99.90
43665;DHT22;29263;48.172;11.484;2023-05-16T14:29:41;11.60;99.90
43665;DHT22;29263;48.172;11.484;2023-05-16T14:32:07;11.60;99.90
43665;DHT22;29263;48.172;11.484;2023-05-16T14:34:33;11.60;99.90
43665;DHT22;29263;48.172;11.484;2023-05-16T14:36:59;11.60;99.90
43665;DHT22;29263;48.172;11.484;2023-05-16T14:39:25;11.60;99.90
43665;DHT22;29263;48.172;11.484;2023-05-16T14:41:51;11.60;99.90
43665;DHT22;29263;48.172;11.484;2023-05-16T14:44:17;11.50;99.90
43665;DHT22;29263;48.172;11.484;2023-05-16T14:46:43;11.50;99.90
43665;DHT22;29263;48.172;11.484;2023-05-16T14:49:09;11.60;99.90
43665;DHT22;29263;48.172;11.484;2023-05-16T14:51:35;11.60;99.90
43665;DHT22;29263;48.172;11.484;2023-05-16T14:54:01;11.60;99.90
43665;DHT22;29263;48.172;11.484;2023-05-16T14:56:27;11.60;99.90
43665;DHT22;29263;48.172;11.484;2023-05-16T14:58:52;11.50;99.90
43665;DHT22;29263;48.172;11.484;2023-05-16T15:01:18;11.40;99.90
43665;DHT22;29263;48.172;11.484;2023-05-16T15:03:44;11.40;99.90
43665;DHT22;29263;48.172;11.484;2023-05-16T15:06:10;11.40;99.90
43665;DHT22;29263;48.172;11.484;2023-05-16T15:08:35;11.50;99.90
43665;DHT22;29263;48.172;11.484;2023-05-16T15:11:03;11.50;99.90
43665;DHT22;29263;48.172;11.484;2023-05-16T15:13:28;11.50;99.90
43665;DHT22;29263;48.172;11.484;2023-05-16T15:15:54;11.50;99.90
43665;DHT22;29263;48.172;11.484;2023-05-16T15:18:20;11.60;99.90
43665;DHT22;29263;48.172;11.484;2023-05-16T15:20:46;11.60;99.90
43665;DHT22;29263;48.172;11.484;2023-05-16T15:23:11;11.60;99.90
43665;DHT22;29263;48.172;11.484;2023-05-16T15:25:37;11.50;99.90
43665;DHT22;29263;48.172;11.484;2023-05-16T15:28:03;11.50;99.90
43665;DHT22;29263;48.172;11.484;2023-05-16T15:30:28;11.50;99.90
43665;DHT22;29263;48.172;11.484;2023-05-16T15:32:54;11.50;99.90
43665;DHT22;29263;48.172;11.484;2023-05-16T15:35:20;11.60;99.90
43665;DHT22;29263;48.172;11.484;2023-05-16T15:37:45;11.50;99.90
43665;DHT22;29263;48.172;11.484;2023-05-16T15:40:11;11.50;99.90
43665;DHT22;29263;48.172;11.484;2023-05-16T15:42:37;11.50;99.90
43665;DHT22;29263;48.172;11.484;2023-05-16T15:45:03;11.60;99.90
43665;DHT22;29263;48.172;11.484;2023-05-16T15:47:28;11.50;99.90
43665;DHT22;29263;48.172;11.484;2023-05-16T15:49:54;11.40;99.90
43665;DHT22;29263;48.172;11.484;2023-05-16T15:52:20;11.40;99.90
43665;DHT22;29263;48.172;11.484;2023-05-16T15:54:45;11.40;99.90
43665;DHT22;29263;48.172;11.484;2023-05-16T15:57:11;11.40;99.90
43665;DHT22;29263;48.172;11.484;2023-05-16T15:59:37;11.40;99.90
43665;DHT22;29263;48.172;11.484;2023-05-16T16:02:03;11.40;99.90
43665;DHT22;29263;48.172;11.484;2023-05-16T16:04:30;11.40;99.90
43665;DHT22;29263;48.172;11.484;2023-05-16T16:06:56;11.30;99.90